createdAt,value
2022-12-18T00:01:49.924Z,48.22
2022-12-18T00:04:52.657Z,43.92
2022-12-18T00:07:55.495Z,41.03
2022-12-18T00:11:07.066Z,42.67
2022-12-18T00:14:13.016Z,45.92
2022-12-18T00:17:15.789Z,45.60
2022-12-18T00:20:22.844Z,47.22
2022-12-18T00:23:25.814Z,47.87
2022-12-18T00:26:34.474Z,46.92
2022-12-18T00:29:41.448Z,49.33
2022-12-18T00:32:44.300Z,46.75
2022-12-18T00:35:47.090Z,43.92
2022-12-18T00:38:50.234Z,46.40
2022-12-18T00:42:12.796Z,42.95
2022-12-18T00:45:16.075Z,39.83
2022-12-18T00:48:19.159Z,49.65
2022-12-18T00:51:21.990Z,52.10
2022-12-18T00:54:25.080Z,41.60
2022-12-18T00:57:27.842Z,49.95
2022-12-18T01:00:30.637Z,45.03
2022-12-18T01:03:34.038Z,41.70
2022-12-18T01:06:37.077Z,46.38
2022-12-18T01:09:39.964Z,43.90
2022-12-18T01:12:42.904Z,46.83
2022-12-18T01:15:52.825Z,46.75
2022-12-18T01:18:56.601Z,44.80
2022-12-18T01:22:00.160Z,51.83
2022-12-18T01:25:03.766Z,50.90
2022-12-18T01:28:07.794Z,52.00
2022-12-18T01:31:26.272Z,54.13
2022-12-18T01:34:29.123Z,47.28
2022-12-18T01:37:32.183Z,49.72
2022-12-18T01:40:34.957Z,46.03
2022-12-18T01:43:49.840Z,49.53
2022-12-18T01:46:52.552Z,60.67
2022-12-18T01:49:56.888Z,51.95
2022-12-18T01:53:21.817Z,43.22
2022-12-18T01:56:24.893Z,41.03
2022-12-18T01:59:29.869Z,46.40
2022-12-18T02:02:32.783Z,39.53
2022-12-18T02:06:01.371Z,37.22
2022-12-18T02:09:21.834Z,32.00
2022-12-18T02:12:41.328Z,38.90
2022-12-18T02:16:08.319Z,39.25
2022-12-18T02:19:32.783Z,38.92
2022-12-18T02:23:05.588Z,32.60
2022-12-18T02:26:35.854Z,37.78
2022-12-18T02:29:45.544Z,39.43
2022-12-18T02:32:54.939Z,36.47
2022-12-18T02:35:59.515Z,36.15
2022-12-18T02:39:05.436Z,35.53
2022-12-18T02:42:11.239Z,36.38
2022-12-18T02:45:14.191Z,36.37
2022-12-18T02:48:20.019Z,41.78
2022-12-18T02:51:32.387Z,42.40
2022-12-18T02:54:51.488Z,51.20
2022-12-18T02:57:57.145Z,45.67
2022-12-18T03:01:19.509Z,39.13
2022-12-18T03:04:29.100Z,37.53
2022-12-18T03:08:00.860Z,43.97
2022-12-18T03:11:10.304Z,35.97
2022-12-18T03:14:17.849Z,42.17
2022-12-18T03:17:26.503Z,43.93
2022-12-18T03:20:32.597Z,44.97
2022-12-18T03:23:42.480Z,49.63
2022-12-18T03:26:50.554Z,43.67
2022-12-18T03:30:08.432Z,45.63
2022-12-18T03:33:20.785Z,46.27
2022-12-18T03:36:26.199Z,47.15
2022-12-18T03:39:29.164Z,47.13
2022-12-18T03:43:01.974Z,44.70
2022-12-18T03:46:16.793Z,46.92
2022-12-18T03:49:36.227Z,52.90
2022-12-18T03:52:47.630Z,52.00
2022-12-18T03:55:53.032Z,51.22
2022-12-18T03:58:57.809Z,50.38
2022-12-18T04:02:05.246Z,49.03
2022-12-18T04:05:09.676Z,45.47
2022-12-18T04:08:16.130Z,45.85
2022-12-18T04:11:26.046Z,43.83
2022-12-18T04:14:29.884Z,45.25
2022-12-18T04:17:33.500Z,42.40
2022-12-18T04:20:37.296Z,42.33
2022-12-18T04:23:40.907Z,51.30
2022-12-18T04:26:44.252Z,44.55
2022-12-18T04:29:51.559Z,47.00
2022-12-18T04:32:54.752Z,53.25
2022-12-18T04:35:59.070Z,49.27
2022-12-18T04:39:02.564Z,53.80
2022-12-18T04:42:05.670Z,47.65
2022-12-18T04:45:09.488Z,57.55
2022-12-18T04:48:13.522Z,51.22
2022-12-18T04:51:16.352Z,43.37
2022-12-18T04:54:19.292Z,48.67
2022-12-18T04:57:22.072Z,41.88
2022-12-18T05:00:24.852Z,40.80
2022-12-18T05:03:28.535Z,42.60
2022-12-18T05:06:31.387Z,44.30
2022-12-18T05:09:34.257Z,44.72
2022-12-18T05:12:57.412Z,41.05
2022-12-18T05:16:00.321Z,37.63
2022-12-18T05:19:03.492Z,45.75
2022-12-18T05:22:09.597Z,45.83
2022-12-18T05:25:12.754Z,49.90
2022-12-18T05:28:15.576Z,44.17
2022-12-18T05:31:18.836Z,45.22
2022-12-18T05:34:21.621Z,46.42
2022-12-18T05:37:24.699Z,40.87
2022-12-18T05:40:27.486Z,43.17
2022-12-18T05:43:31.311Z,48.67
2022-12-18T05:46:34.102Z,55.13
2022-12-18T05:49:36.958Z,67.63
2022-12-18T05:52:39.655Z,94.37
2022-12-18T05:55:43.478Z,76.57
2022-12-18T05:58:46.931Z,65.82
2022-12-18T06:01:52.352Z,72.53
2022-12-18T06:04:55.191Z,63.70
2022-12-18T06:07:57.986Z,59.77
2022-12-18T06:11:00.719Z,54.50
2022-12-18T06:14:05.034Z,49.38
2022-12-18T06:17:07.851Z,48.92
2022-12-18T06:20:11.030Z,52.20
2022-12-18T06:23:13.797Z,46.73
2022-12-18T06:26:16.529Z,49.90
2022-12-18T06:29:19.433Z,48.85
2022-12-18T06:32:23.522Z,46.38
2022-12-18T06:35:26.377Z,47.15
2022-12-18T06:38:29.147Z,43.70
2022-12-18T06:41:32.190Z,46.25
2022-12-18T06:44:35.051Z,43.55
2022-12-18T06:47:38.042Z,48.03
2022-12-18T06:50:43.678Z,53.58
2022-12-18T06:53:46.746Z,47.63
2022-12-18T06:56:49.449Z,52.92
2022-12-18T06:59:53.678Z,55.13
2022-12-18T07:02:56.544Z,52.83
2022-12-18T07:05:59.456Z,57.58
2022-12-18T07:09:02.434Z,65.43
2022-12-18T07:12:06.088Z,65.70
2022-12-18T07:15:09.284Z,75.03
2022-12-18T07:18:12.067Z,70.70
2022-12-18T07:21:18.061Z,64.40
2022-12-18T07:24:20.802Z,61.67
2022-12-18T07:27:24.036Z,69.15
2022-12-18T07:30:27.418Z,69.97
2022-12-18T07:33:30.149Z,67.28
2022-12-18T07:36:33.709Z,62.67
2022-12-18T07:39:36.486Z,65.70
2022-12-18T07:42:39.578Z,69.10
2022-12-18T07:45:43.548Z,70.25
2022-12-18T07:48:49.840Z,74.00
2022-12-18T07:51:56.080Z,68.22
2022-12-18T07:54:58.892Z,70.13
2022-12-18T07:58:03.551Z,61.15
2022-12-18T08:01:11.757Z,64.15
2022-12-18T08:04:14.750Z,51.35
2022-12-18T08:07:17.544Z,58.80
2022-12-18T08:10:21.399Z,54.67
2022-12-18T08:13:24.856Z,49.58
2022-12-18T08:16:27.904Z,47.58
2022-12-18T08:19:30.862Z,47.20
2022-12-18T08:22:38.936Z,48.20
2022-12-18T08:25:41.770Z,42.53
2022-12-18T08:28:45.471Z,39.35
2022-12-18T08:31:53.053Z,43.17
2022-12-18T08:34:55.891Z,43.95
2022-12-18T08:37:58.937Z,43.97
2022-12-18T08:41:07.098Z,41.03
2022-12-18T08:44:28.394Z,39.97
2022-12-18T08:47:31.243Z,40.53
2022-12-18T08:50:34.133Z,38.15
2022-12-18T08:53:38.118Z,36.42
2022-12-18T08:56:41.494Z,41.70
2022-12-18T08:59:44.381Z,42.40
2022-12-18T09:02:47.395Z,40.33
2022-12-18T09:05:50.289Z,36.80
2022-12-18T09:08:53.115Z,37.13
2022-12-18T09:11:56.200Z,37.23
2022-12-18T09:14:59.002Z,38.95
2022-12-18T09:18:01.815Z,40.05
2022-12-18T09:21:20.230Z,36.53
2022-12-18T09:24:26.343Z,35.95
2022-12-18T09:27:30.218Z,38.83
2022-12-18T09:30:35.309Z,31.88
2022-12-18T09:33:39.081Z,35.00
2022-12-18T09:36:42.000Z,37.00
2022-12-18T09:39:46.642Z,37.35
2022-12-18T09:43:00.554Z,33.70
2022-12-18T09:46:10.267Z,35.33
2022-12-18T09:49:17.641Z,33.47
2022-12-18T09:52:45.517Z,31.15
2022-12-18T09:55:50.168Z,32.55
2022-12-18T09:59:02.614Z,29.00
2022-12-18T10:02:22.465Z,32.03
2022-12-18T10:05:41.343Z,35.40
2022-12-18T10:09:05.053Z,35.90
2022-12-18T10:12:10.941Z,28.13
2022-12-18T10:15:25.631Z,29.80
2022-12-18T10:18:38.649Z,30.17
2022-12-18T10:22:00.398Z,29.17
2022-12-18T10:25:16.528Z,31.25
2022-12-18T10:28:21.689Z,36.95
2022-12-18T10:31:25.866Z,36.80
2022-12-18T10:34:28.660Z,37.55
2022-12-18T10:37:31.573Z,35.72
2022-12-18T10:40:53.376Z,44.70
2022-12-18T10:44:13.084Z,50.00
2022-12-18T10:47:20.074Z,38.30
2022-12-18T10:51:01.368Z,36.50
2022-12-18T10:54:16.031Z,41.80
2022-12-18T10:57:27.862Z,40.75
2022-12-18T11:00:31.953Z,38.05
2022-12-18T11:03:38.510Z,37.80
2022-12-18T11:07:04.135Z,39.50
2022-12-18T11:10:17.361Z,41.22
2022-12-18T11:13:23.337Z,37.05
2022-12-18T11:16:27.791Z,37.22
2022-12-18T11:19:38.050Z,36.70
2022-12-18T11:22:41.332Z,39.08
2022-12-18T11:25:53.660Z,36.38
2022-12-18T11:29:12.151Z,34.80
2022-12-18T11:32:30.696Z,33.92
2022-12-18T11:35:51.942Z,38.67
2022-12-18T11:38:56.922Z,40.85
2022-12-18T11:42:15.442Z,37.42
2022-12-18T11:45:28.288Z,39.75
2022-12-18T11:48:47.782Z,37.95
2022-12-18T11:52:11.832Z,33.37
2022-12-18T11:55:17.544Z,32.80
2022-12-18T11:58:29.362Z,37.92
2022-12-18T12:01:44.929Z,34.80
2022-12-18T12:04:52.300Z,35.17
2022-12-18T12:08:07.323Z,33.73
2022-12-18T12:11:31.668Z,34.97
2022-12-18T12:14:53.158Z,35.78
2022-12-18T12:18:23.949Z,32.05
2022-12-18T12:21:35.880Z,33.05
2022-12-18T12:25:09.821Z,32.90
2022-12-18T12:28:15.744Z,37.75
2022-12-18T12:31:23.965Z,40.35
2022-12-18T12:34:54.818Z,34.45
2022-12-18T12:38:12.393Z,44.67
2022-12-18T12:41:38.801Z,37.83
2022-12-18T12:44:52.738Z,37.20
2022-12-18T12:48:00.815Z,41.28
2022-12-18T12:51:11.327Z,34.92
2022-12-18T12:54:25.890Z,35.50
2022-12-18T12:57:57.602Z,38.27
2022-12-18T13:01:28.637Z,32.17
2022-12-18T13:05:05.841Z,31.95
2022-12-18T13:08:11.221Z,45.83
2022-12-18T13:12:01.444Z,41.67
2022-12-18T13:15:36.764Z,39.30
2022-12-18T13:18:59.927Z,39.42
2022-12-18T13:22:02.759Z,44.25
2022-12-18T13:25:36.257Z,38.58
2022-12-18T13:28:48.818Z,42.83
2022-12-18T13:31:59.313Z,45.80
2022-12-18T13:35:21.050Z,42.67
2022-12-18T13:38:35.009Z,48.42
2022-12-18T13:41:38.075Z,42.53
2022-12-18T13:44:42.519Z,47.60
2022-12-18T13:47:45.362Z,48.93
2022-12-18T13:51:18.897Z,44.83
2022-12-18T13:54:38.651Z,48.10
2022-12-18T13:57:42.217Z,46.83
2022-12-18T14:00:45.765Z,57.13
2022-12-18T14:03:49.523Z,54.70
2022-12-18T14:07:05.284Z,46.00
2022-12-18T14:10:44.305Z,43.78
2022-12-18T14:13:43.112Z,42.47
2022-12-18T14:16:48.185Z,51.78
2022-12-18T14:19:52.809Z,45.67
2022-12-18T14:22:57.355Z,53.42
2022-12-18T14:26:06.006Z,48.63
2022-12-18T14:29:29.794Z,51.42
2022-12-18T14:32:32.737Z,56.92
2022-12-18T14:35:44.962Z,58.47
2022-12-18T14:38:56.313Z,56.40
2022-12-18T14:41:59.171Z,62.10
2022-12-18T14:45:43.323Z,66.07
2022-12-18T14:48:48.900Z,67.10
2022-12-18T14:51:55.249Z,61.00
2022-12-18T14:54:58.413Z,63.03
2022-12-18T14:58:01.245Z,69.18
2022-12-18T15:01:04.209Z,72.75
2022-12-18T15:04:24.048Z,83.28
2022-12-18T15:07:27.310Z,62.97
2022-12-18T15:10:32.759Z,72.57
2022-12-18T15:13:35.912Z,84.13
2022-12-18T15:16:42.244Z,89.13
2022-12-18T15:19:52.526Z,88.68
2022-12-18T15:22:55.725Z,99.43
2022-12-18T15:26:01.683Z,88.80
2022-12-18T15:29:04.535Z,114.68
2022-12-18T15:32:20.458Z,108.40
2022-12-18T15:35:25.626Z,116.55
2022-12-18T15:38:28.732Z,115.60
2022-12-18T15:41:35.778Z,115.38
2022-12-18T15:44:39.589Z,133.73
2022-12-18T15:47:45.790Z,116.63
2022-12-18T15:50:49.553Z,128.85
2022-12-18T15:53:55.665Z,120.50
2022-12-18T15:57:18.256Z,75.55
2022-12-18T16:00:21.365Z,97.45
2022-12-18T16:03:24.561Z,99.13
2022-12-18T16:06:40.312Z,84.32
2022-12-18T16:09:52.142Z,79.70
2022-12-18T16:12:55.306Z,83.13
2022-12-18T16:15:58.785Z,57.03
2022-12-18T16:19:02.004Z,67.40
2022-12-18T16:22:07.151Z,68.78
2022-12-18T16:25:23.251Z,81.03
2022-12-18T16:28:26.285Z,80.30
2022-12-18T16:31:29.402Z,66.53
2022-12-18T16:34:35.874Z,69.45
2022-12-18T16:37:40.082Z,71.97
2022-12-18T16:41:03.207Z,88.07
2022-12-18T16:44:07.430Z,73.40
2022-12-18T16:47:11.769Z,83.38
2022-12-18T16:50:18.788Z,59.15
2022-12-18T16:53:21.888Z,72.05
2022-12-18T16:56:25.669Z,70.40
2022-12-18T16:59:29.388Z,108.30
2022-12-18T17:02:33.745Z,71.45
2022-12-18T17:05:36.988Z,89.55
2022-12-18T17:08:40.100Z,67.00
2022-12-18T17:11:44.058Z,85.37
2022-12-18T17:14:47.171Z,66.68
2022-12-18T17:17:51.246Z,70.65
2022-12-18T17:20:59.551Z,64.05
2022-12-18T17:24:03.110Z,73.13
2022-12-18T17:27:06.394Z,58.13
2022-12-18T17:30:10.852Z,77.70
2022-12-18T17:33:14.109Z,79.68
2022-12-18T17:36:17.938Z,82.50
2022-12-18T17:39:22.215Z,55.47
2022-12-18T17:42:26.478Z,60.70
2022-12-18T17:45:29.311Z,76.43
2022-12-18T17:48:33.945Z,88.22
2022-12-18T17:51:37.140Z,94.68
2022-12-18T17:54:42.335Z,69.55
2022-12-18T17:57:46.585Z,78.23
2022-12-18T18:00:50.091Z,71.35
2022-12-18T18:03:56.142Z,69.70
2022-12-18T18:06:59.234Z,66.40
2022-12-18T18:10:04.074Z,74.05
2022-12-18T18:13:46.625Z,82.87
2022-12-18T18:16:52.644Z,102.43
2022-12-18T18:19:55.676Z,98.45
2022-12-18T18:22:59.608Z,93.25
2022-12-18T18:26:05.203Z,96.72
2022-12-18T18:29:12.258Z,88.60
2022-12-18T18:32:15.578Z,87.15
2022-12-18T18:35:45.092Z,124.40
2022-12-18T18:38:46.710Z,102.75
2022-12-18T18:41:51.989Z,94.28
2022-12-18T18:44:55.139Z,101.07
2022-12-18T18:47:59.198Z,102.53
2022-12-18T18:51:08.133Z,106.60
2022-12-18T18:54:11.689Z,106.03
2022-12-18T18:57:24.239Z,100.25
2022-12-18T19:00:29.059Z,104.77
2022-12-18T19:03:33.453Z,103.60
2022-12-18T19:06:36.485Z,108.75
2022-12-18T19:09:40.448Z,106.57
2022-12-18T19:13:01.825Z,98.07
2022-12-18T19:16:08.028Z,108.33
2022-12-18T19:19:13.194Z,102.25
2022-12-18T19:22:16.461Z,124.38
2022-12-18T19:25:19.686Z,140.30
2022-12-18T19:28:32.093Z,170.07
2022-12-18T19:31:37.126Z,196.23
2022-12-18T19:34:40.559Z,191.93
2022-12-18T19:37:43.818Z,186.05
2022-12-18T19:40:46.893Z,227.63
2022-12-18T19:43:51.478Z,244.55
2022-12-18T19:46:54.554Z,197.40
2022-12-18T19:49:57.626Z,170.10
2022-12-18T19:53:01.114Z,168.02
2022-12-18T19:56:09.328Z,184.80
2022-12-18T19:59:12.937Z,155.10
2022-12-18T20:02:15.942Z,154.37
2022-12-18T20:05:25.122Z,141.85
2022-12-18T20:08:28.150Z,144.63
2022-12-18T20:11:32.153Z,152.90
2022-12-18T20:14:35.818Z,146.30
2022-12-18T20:17:39.332Z,134.63
2022-12-18T20:20:42.155Z,135.43
2022-12-18T20:23:45.694Z,132.35
2022-12-18T20:26:48.901Z,138.70
2022-12-18T20:29:52.071Z,166.55
2022-12-18T20:32:55.178Z,175.77
2022-12-18T20:36:21.350Z,187.05
2022-12-18T20:39:27.648Z,183.70
2022-12-18T20:42:31.422Z,191.88
2022-12-18T20:45:34.382Z,173.85
2022-12-18T20:48:39.083Z,163.70
2022-12-18T20:51:42.054Z,143.77
2022-12-18T20:54:45.112Z,127.82
2022-12-18T20:57:48.554Z,117.03
2022-12-18T21:01:02.446Z,114.15
2022-12-18T21:04:05.659Z,99.87
2022-12-18T21:07:08.705Z,88.65
2022-12-18T21:10:11.761Z,91.90
2022-12-18T21:13:14.529Z,82.78
2022-12-18T21:16:19.449Z,96.95
2022-12-18T21:19:25.585Z,94.60
2022-12-18T21:22:28.918Z,90.20
2022-12-18T21:25:31.790Z,94.10
2022-12-18T21:28:34.617Z,91.72
2022-12-18T21:31:39.334Z,94.45
2022-12-18T21:34:47.850Z,97.90
2022-12-18T21:37:51.091Z,84.45
2022-12-18T21:40:54.005Z,95.32
2022-12-18T21:44:06.089Z,108.28
2022-12-18T21:47:21.848Z,105.90
2022-12-18T21:50:26.190Z,128.47
2022-12-18T21:53:28.966Z,209.48
2022-12-18T21:56:44.110Z,213.85
2022-12-18T21:59:46.908Z,238.95
2022-12-18T22:03:17.547Z,269.83
2022-12-18T22:06:13.022Z,267.63
2022-12-18T22:09:19.292Z,266.55
2022-12-18T22:12:35.831Z,280.73
2022-12-18T22:15:47.000Z,263.48
2022-12-18T22:18:49.962Z,239.45
2022-12-18T22:21:53.286Z,232.47
2022-12-18T22:24:56.137Z,167.55
2022-12-18T22:28:17.658Z,137.82
2022-12-18T22:31:20.496Z,105.85
2022-12-18T22:34:23.513Z,88.40
2022-12-18T22:37:26.491Z,110.97
2022-12-18T22:40:29.924Z,100.45
2022-12-18T22:43:33.517Z,95.03
2022-12-18T22:46:39.433Z,96.65
2022-12-18T22:49:42.417Z,82.30
2022-12-18T22:52:45.212Z,81.20
2022-12-18T22:55:48.064Z,74.07
2022-12-18T22:58:51.837Z,97.63
2022-12-18T23:01:59.104Z,106.85
2022-12-18T23:05:02.523Z,78.05
2022-12-18T23:08:05.392Z,75.50
2022-12-18T23:11:08.967Z,88.28
2022-12-18T23:14:12.370Z,84.05
2022-12-18T23:17:15.186Z,83.88
2022-12-18T23:20:17.942Z,80.63
2022-12-18T23:23:20.708Z,78.73
2022-12-18T23:26:25.860Z,80.90
2022-12-18T23:29:28.586Z,96.50
2022-12-18T23:32:31.424Z,97.85
2022-12-18T23:35:35.819Z,84.85
2022-12-18T23:38:38.977Z,91.03
2022-12-18T23:41:41.718Z,81.85
2022-12-18T23:44:44.426Z,82.22
2022-12-18T23:47:48.265Z,86.60
2022-12-18T23:50:54.168Z,85.13
2022-12-18T23:53:59.256Z,99.77
2022-12-18T23:57:02.234Z,92.00
